createdAt,value
2023-05-12T00:00:49.432Z,5.25
2023-05-12T00:01:52.688Z,4.50
2023-05-12T00:02:56.281Z,8.00
2023-05-12T00:03:59.774Z,12.75
2023-05-12T00:05:04.011Z,8.25
2023-05-12T00:06:07.484Z,5.00
2023-05-12T00:07:10.857Z,4.00
2023-05-12T00:08:14.129Z,4.25
2023-05-12T00:09:17.317Z,4.50
2023-05-12T00:10:21.467Z,3.25
2023-05-12T00:11:25.429Z,4.50
2023-05-12T00:12:28.805Z,3.00
2023-05-12T00:13:32.112Z,3.25
2023-05-12T00:14:35.485Z,2.50
2023-05-12T00:15:38.976Z,4.00
2023-05-12T00:16:42.553Z,3.50
2023-05-12T00:17:46.082Z,2.50
2023-05-12T00:18:49.848Z,2.75
2023-05-12T00:19:52.928Z,3.50
2023-05-12T00:20:56.636Z,3.50
2023-05-12T00:21:59.999Z,3.00
2023-05-12T00:23:04.109Z,2.00
2023-05-12T00:24:08.339Z,2.50
2023-05-12T00:25:11.701Z,4.00
2023-05-12T00:26:15.162Z,2.60
2023-05-12T00:27:18.605Z,2.50
2023-05-12T00:28:21.961Z,3.00
2023-05-12T00:29:25.654Z,3.00
2023-05-12T00:30:29.249Z,2.25
2023-05-12T00:31:32.711Z,2.00
2023-05-12T00:32:36.259Z,1.50
2023-05-12T00:33:39.712Z,1.50
2023-05-12T00:34:42.904Z,2.00
2023-05-12T00:35:46.818Z,2.25
2023-05-12T00:36:49.997Z,2.50
2023-05-12T00:37:53.492Z,3.00
2023-05-12T00:38:56.897Z,3.00
2023-05-12T00:40:00.250Z,3.00
2023-05-12T00:41:03.639Z,3.75
2023-05-12T00:42:06.824Z,3.00
2023-05-12T00:43:10.096Z,2.00
2023-05-12T00:44:13.390Z,2.00
2023-05-12T00:45:16.771Z,1.50
2023-05-12T00:46:19.995Z,1.50
2023-05-12T00:47:23.252Z,2.50
2023-05-12T00:48:27.135Z,2.00
2023-05-12T00:49:30.828Z,1.25
2023-05-12T00:50:34.726Z,1.50
2023-05-12T00:51:38.732Z,2.00
2023-05-12T00:52:43.136Z,2.50
2023-05-12T00:53:50.208Z,1.50
2023-05-12T00:54:51.654Z,2.50
2023-05-12T00:55:55.248Z,2.50
2023-05-12T00:56:58.741Z,1.50
2023-05-12T00:58:02.546Z,2.00
2023-05-12T00:59:06.530Z,2.00
2023-05-12T01:00:10.130Z,2.00
2023-05-12T01:01:13.624Z,3.00
2023-05-12T01:02:17.523Z,3.50
2023-05-12T01:03:21.270Z,0.50
2023-05-12T01:04:24.891Z,0.00
2023-05-12T01:05:28.800Z,1.50
2023-05-12T01:06:32.187Z,3.00
2023-05-12T01:07:36.074Z,3.00
2023-05-12T01:08:39.610Z,2.00
2023-05-12T01:09:43.265Z,3.25
2023-05-12T01:10:47.055Z,4.25
2023-05-12T01:11:50.868Z,2.75
2023-05-12T01:12:54.544Z,2.50
2023-05-12T01:13:58.239Z,1.50
2023-05-12T01:15:01.730Z,2.00
2023-05-12T01:16:05.350Z,2.00
2023-05-12T01:17:08.882Z,3.00
2023-05-12T01:18:12.521Z,1.50
2023-05-12T01:19:16.259Z,2.00
2023-05-12T01:20:20.246Z,2.50
2023-05-12T01:21:23.789Z,1.00
2023-05-12T01:22:27.811Z,1.00
2023-05-12T01:23:31.599Z,1.00
2023-05-12T01:24:35.185Z,2.00
2023-05-12T01:25:38.681Z,1.75
2023-05-12T01:26:42.155Z,2.20
2023-05-12T01:27:45.541Z,3.00
2023-05-12T01:28:49.032Z,2.00
2023-05-12T01:29:52.829Z,1.25
2023-05-12T01:30:56.342Z,1.50
2023-05-12T01:31:59.714Z,1.25
2023-05-12T01:33:03.239Z,0.75
2023-05-12T01:34:06.800Z,1.50
2023-05-12T01:35:10.377Z,1.25
2023-05-12T01:36:13.992Z,0.00
2023-05-12T01:37:17.563Z,1.50
2023-05-12T01:38:21.463Z,1.75
2023-05-12T01:39:25.163Z,1.00
2023-05-12T01:40:28.583Z,0.00
2023-05-12T01:41:32.436Z,1.25
2023-05-12T01:42:36.234Z,1.25
2023-05-12T01:43:39.858Z,1.00
2023-05-12T01:44:43.527Z,1.50
2023-05-12T01:45:47.427Z,0.25
2023-05-12T01:46:51.217Z,0.00
2023-05-12T01:47:54.825Z,1.00
2023-05-12T01:48:58.606Z,1.00
2023-05-12T01:50:02.514Z,1.50
2023-05-12T01:51:06.393Z,2.00
2023-05-12T01:52:10.287Z,1.00
2023-05-12T01:53:14.028Z,1.50
2023-05-12T01:54:17.271Z,2.00
2023-05-12T01:55:20.672Z,0.50
2023-05-12T01:56:23.950Z,1.00
2023-05-12T01:57:27.232Z,1.00
2023-05-12T01:58:30.513Z,1.00
2023-05-12T01:59:33.928Z,1.75
2023-05-12T02:00:37.186Z,1.75
2023-05-12T02:01:40.590Z,2.25
2023-05-12T02:02:43.922Z,2.00
2023-05-12T02:03:47.647Z,2.00
2023-05-12T02:04:51.244Z,1.50
2023-05-12T02:05:54.741Z,1.50
2023-05-12T02:06:57.840Z,1.50
2023-05-12T02:08:01.600Z,1.00
2023-05-12T02:09:05.101Z,1.00
2023-05-12T02:10:08.498Z,1.50
2023-05-12T02:11:11.866Z,1.50
2023-05-12T02:12:15.150Z,1.50
2023-05-12T02:13:18.444Z,2.00
2023-05-12T02:14:21.718Z,1.00
2023-05-12T02:15:25.309Z,1.25
2023-05-12T02:16:28.860Z,2.00
2023-05-12T02:17:32.515Z,2.50
2023-05-12T02:18:35.893Z,1.50
2023-05-12T02:19:39.268Z,1.00
2023-05-12T02:20:42.757Z,0.75
2023-05-12T02:21:46.053Z,1.00
2023-05-12T02:22:49.427Z,1.00
2023-05-12T02:23:52.908Z,1.00
2023-05-12T02:24:56.403Z,1.50
2023-05-12T02:26:00.208Z,2.50
2023-05-12T02:27:03.688Z,1.50
2023-05-12T02:28:07.077Z,2.00
2023-05-12T02:29:10.458Z,1.50
2023-05-12T02:30:13.744Z,1.50
2023-05-12T02:31:17.449Z,2.00
2023-05-12T02:32:20.601Z,2.00
2023-05-12T02:33:24.001Z,2.00
2023-05-12T02:34:27.702Z,3.00
2023-05-12T02:35:31.810Z,1.50
2023-05-12T02:36:35.399Z,3.00
2023-05-12T02:37:38.983Z,3.50
2023-05-12T02:38:42.476Z,4.00
2023-05-12T02:39:45.769Z,3.25
2023-05-12T02:40:49.121Z,3.25
2023-05-12T02:41:52.737Z,3.00
2023-05-12T02:42:56.328Z,3.00
2023-05-12T02:43:59.718Z,2.75
2023-05-12T02:45:02.942Z,2.00
2023-05-12T02:46:06.499Z,2.50
2023-05-12T02:47:10.186Z,4.50
2023-05-12T02:48:13.677Z,4.50
2023-05-12T02:49:17.089Z,3.00
2023-05-12T02:50:20.801Z,3.50
2023-05-12T02:51:24.349Z,3.50
2023-05-12T02:52:27.632Z,3.00
2023-05-12T02:53:31.113Z,3.50
2023-05-12T02:54:34.613Z,4.50
2023-05-12T02:55:37.801Z,4.00
2023-05-12T02:56:41.298Z,4.00
2023-05-12T02:57:44.674Z,5.50
2023-05-12T02:58:47.864Z,4.50
2023-05-12T02:59:51.450Z,4.00
2023-05-12T03:01:06.718Z,4.00
2023-05-12T03:02:00.108Z,3.75
2023-05-12T03:03:03.838Z,2.25
2023-05-12T03:04:07.551Z,2.00
2023-05-12T03:05:10.950Z,2.75
2023-05-12T03:06:14.533Z,3.25
2023-05-12T03:07:18.051Z,4.50
2023-05-12T03:08:21.402Z,3.00
2023-05-12T03:09:24.894Z,2.00
2023-05-12T03:10:28.036Z,3.00
2023-05-12T03:11:31.375Z,4.00
2023-05-12T03:12:35.184Z,3.50
2023-05-12T03:13:38.539Z,4.00
2023-05-12T03:14:42.141Z,3.00
2023-05-12T03:15:45.524Z,2.75
2023-05-12T03:16:48.845Z,3.00
2023-05-12T03:17:52.153Z,2.50
2023-05-12T03:18:55.738Z,3.00
2023-05-12T03:19:58.965Z,3.50
2023-05-12T03:21:02.346Z,4.00
2023-05-12T03:22:05.736Z,1.80
2023-05-12T03:23:09.542Z,1.50
2023-05-12T03:24:13.036Z,2.50
2023-05-12T03:25:16.408Z,2.50
2023-05-12T03:26:19.615Z,3.00
2023-05-12T03:27:22.789Z,2.00
2023-05-12T03:28:26.306Z,2.00
2023-05-12T03:29:29.760Z,2.50
2023-05-12T03:30:33.039Z,2.50
2023-05-12T03:31:36.340Z,2.25
2023-05-12T03:32:39.845Z,3.00
2023-05-12T03:33:43.611Z,4.00
2023-05-12T03:34:47.207Z,3.25
2023-05-12T03:35:50.796Z,3.50
2023-05-12T03:36:54.112Z,3.00
2023-05-12T03:37:57.455Z,4.50
2023-05-12T03:39:00.951Z,4.00
2023-05-12T03:40:04.138Z,2.50
2023-05-12T03:41:07.231Z,2.00
2023-05-12T03:42:10.901Z,2.50
2023-05-12T03:43:14.392Z,2.75
2023-05-12T03:44:18.099Z,1.75
2023-05-12T03:45:21.783Z,2.50
2023-05-12T03:46:25.336Z,2.00
2023-05-12T03:47:29.325Z,2.50
2023-05-12T03:48:33.059Z,2.00
2023-05-12T03:49:36.258Z,3.00
2023-05-12T03:50:39.637Z,3.00
2023-05-12T03:51:42.812Z,2.50
2023-05-12T03:52:46.209Z,2.50
2023-05-12T03:53:49.684Z,2.50
2023-05-12T03:54:53.188Z,2.00
2023-05-12T03:55:56.463Z,3.50
2023-05-12T03:56:59.791Z,4.00
2023-05-12T03:58:02.935Z,2.50
2023-05-12T03:59:06.414Z,2.00
2023-05-12T04:00:09.931Z,2.00
2023-05-12T04:01:13.395Z,2.75
2023-05-12T04:02:16.700Z,3.50
2023-05-12T04:03:20.208Z,3.00
2023-05-12T04:04:23.877Z,2.50
2023-05-12T04:05:27.463Z,3.00
2023-05-12T04:06:30.745Z,2.00
2023-05-12T04:07:34.487Z,2.50
2023-05-12T04:08:38.523Z,3.25
2023-05-12T04:09:42.037Z,3.25
2023-05-12T04:10:45.950Z,4.00
2023-05-12T04:11:49.219Z,4.00
2023-05-12T04:12:52.803Z,3.00
2023-05-12T04:13:56.292Z,2.50
2023-05-12T04:14:59.778Z,2.50
2023-05-12T04:16:03.196Z,3.50
2023-05-12T04:17:06.554Z,3.00
2023-05-12T04:18:10.659Z,2.50
2023-05-12T04:19:13.937Z,2.50
2023-05-12T04:20:17.511Z,2.75
2023-05-12T04:21:20.821Z,2.50
2023-05-12T04:22:25.722Z,2.00
2023-05-12T04:23:29.025Z,2.00
2023-05-12T04:24:32.323Z,2.50
2023-05-12T04:25:35.689Z,2.50
2023-05-12T04:26:39.593Z,1.50
2023-05-12T04:27:42.875Z,2.50
2023-05-12T04:28:46.264Z,3.25
2023-05-12T04:29:49.577Z,3.00
2023-05-12T04:30:52.723Z,2.50
2023-05-12T04:31:56.557Z,2.75
2023-05-12T04:33:00.078Z,2.00
2023-05-12T04:34:03.708Z,2.00
2023-05-12T04:35:07.399Z,2.00
2023-05-12T04:36:11.036Z,1.50
2023-05-12T04:37:14.485Z,1.50
2023-05-12T04:38:18.389Z,3.00
2023-05-12T04:39:22.492Z,3.00
2023-05-12T04:40:26.187Z,2.00
2023-05-12T04:41:30.088Z,2.50
2023-05-12T04:42:33.995Z,2.00
2023-05-12T04:44:42.213Z,1.50
2023-05-12T04:45:45.808Z,2.00
2023-05-12T04:46:49.583Z,1.50
2023-05-12T04:47:53.474Z,2.75
2023-05-12T04:49:00.456Z,3.00
2023-05-12T04:50:04.254Z,2.00
2023-05-12T04:51:08.960Z,3.00
2023-05-12T04:52:12.462Z,3.00
2023-05-12T04:53:15.942Z,2.50
2023-05-12T04:54:19.633Z,2.75
2023-05-12T04:55:23.635Z,2.00
2023-05-12T04:56:27.428Z,2.00
2023-05-12T04:57:31.119Z,3.00
2023-05-12T04:58:35.122Z,3.00
2023-05-12T04:59:40.592Z,2.75
2023-05-12T05:00:44.467Z,1.75
2023-05-12T05:01:48.014Z,2.75
2023-05-12T05:02:51.544Z,3.50
2023-05-12T05:03:55.137Z,2.50
2023-05-12T05:04:58.616Z,2.00
2023-05-12T05:06:02.211Z,3.00
2023-05-12T05:07:06.012Z,2.50
2023-05-12T05:08:09.393Z,2.00
2023-05-12T05:09:13.592Z,2.50
2023-05-12T05:10:16.980Z,2.50
2023-05-12T05:11:20.474Z,2.75
2023-05-12T05:12:23.764Z,3.00
2023-05-12T05:13:27.783Z,2.50
2023-05-12T05:14:31.145Z,2.50
2023-05-12T05:15:34.752Z,3.00
2023-05-12T05:16:38.161Z,2.00
2023-05-12T05:17:41.852Z,2.50
2023-05-12T05:18:45.334Z,2.50
2023-05-12T05:19:57.513Z,2.50
2023-05-12T05:20:57.874Z,3.00
2023-05-12T05:21:57.843Z,2.50
2023-05-12T05:23:01.627Z,2.25
2023-05-12T05:24:06.241Z,2.00
2023-05-12T05:25:18.050Z,2.00
2023-05-12T05:26:22.100Z,3.00
2023-05-12T05:27:25.823Z,3.00
2023-05-12T05:28:29.117Z,3.50
2023-05-12T05:29:32.692Z,3.00
2023-05-12T05:30:36.584Z,2.50
2023-05-12T05:31:40.093Z,3.50
2023-05-12T05:32:43.397Z,2.75
2023-05-12T05:33:47.155Z,2.50
2023-05-12T05:34:50.650Z,2.00
2023-05-12T05:35:54.027Z,3.00
2023-05-12T05:36:57.638Z,3.00
2023-05-12T05:38:01.114Z,2.50
2023-05-12T05:39:04.826Z,1.75
2023-05-12T05:40:08.806Z,2.00
2023-05-12T05:41:12.816Z,2.50
2023-05-12T05:42:16.397Z,2.75
2023-05-12T05:43:19.695Z,2.75
2023-05-12T05:44:23.271Z,2.00
2023-05-12T05:45:28.113Z,2.00
2023-05-12T05:46:31.120Z,2.00
2023-05-12T05:47:34.684Z,3.50
2023-05-12T05:48:37.884Z,3.25
2023-05-12T05:49:41.650Z,2.50
2023-05-12T05:50:44.933Z,2.00
2023-05-12T05:51:48.414Z,2.25
2023-05-12T05:52:51.823Z,3.25
2023-05-12T05:53:55.298Z,2.50
2023-05-12T05:54:59.091Z,2.50
2023-05-12T05:56:02.572Z,3.00
2023-05-12T05:57:06.084Z,2.00
2023-05-12T05:58:09.867Z,2.00
2023-05-12T05:59:13.035Z,2.00
2023-05-12T06:00:16.236Z,3.50
2023-05-12T06:01:20.017Z,3.50
2023-05-12T06:02:23.496Z,2.50
2023-05-12T06:03:27.249Z,2.50
2023-05-12T06:04:30.459Z,2.00
2023-05-12T06:05:33.585Z,3.25
2023-05-12T06:06:36.949Z,2.50
2023-05-12T06:07:40.341Z,2.00
2023-05-12T06:08:43.678Z,3.00
2023-05-12T06:09:47.318Z,3.50
2023-05-12T06:10:51.212Z,2.00
2023-05-12T06:11:54.808Z,2.00
2023-05-12T06:12:58.011Z,3.50
2023-05-12T06:14:01.611Z,3.75
2023-05-12T06:15:04.973Z,3.00
2023-05-12T06:16:08.180Z,3.50
2023-05-12T06:17:11.654Z,3.50
2023-05-12T06:18:15.140Z,3.00
2023-05-12T06:19:18.524Z,3.50
2023-05-12T06:20:22.518Z,4.00
2023-05-12T06:21:25.802Z,3.25
2023-05-12T06:22:29.591Z,4.00
2023-05-12T06:23:33.106Z,3.50
2023-05-12T06:24:36.568Z,3.50
2023-05-12T06:25:40.570Z,3.00
2023-05-12T06:26:44.162Z,3.00
2023-05-12T06:27:47.670Z,4.00
2023-05-12T06:28:51.270Z,3.00
2023-05-12T06:29:54.529Z,2.00
2023-05-12T06:30:57.914Z,3.00
2023-05-12T06:32:01.819Z,3.00
2023-05-12T06:33:05.273Z,3.50
2023-05-12T06:34:08.797Z,3.50
2023-05-12T06:35:12.099Z,4.00
2023-05-12T06:36:16.192Z,4.00
2023-05-12T06:37:20.103Z,3.25
2023-05-12T06:38:23.784Z,3.50
2023-05-12T06:39:27.279Z,4.00
2023-05-12T06:40:30.757Z,3.50
2023-05-12T06:41:33.830Z,3.00
2023-05-12T06:42:37.996Z,4.00
2023-05-12T06:43:41.630Z,3.00
2023-05-12T06:44:45.773Z,3.00
2023-05-12T06:45:49.498Z,3.50
2023-05-12T06:46:53.636Z,4.00
2023-05-12T06:47:57.174Z,4.00
2023-05-12T06:49:01.034Z,3.50
2023-05-12T06:50:04.121Z,3.50
2023-05-12T06:51:08.005Z,4.00
2023-05-12T06:52:11.494Z,3.50
2023-05-12T06:53:14.976Z,3.50
2023-05-12T06:54:18.362Z,3.00
2023-05-12T06:55:25.037Z,3.50
2023-05-12T06:56:30.288Z,3.00
2023-05-12T06:57:33.751Z,3.50
2023-05-12T06:58:37.546Z,3.50
2023-05-12T06:59:40.739Z,3.50
2023-05-12T07:00:44.028Z,4.00
2023-05-12T07:01:48.537Z,3.50
2023-05-12T07:02:52.690Z,2.75
2023-05-12T07:03:56.235Z,3.50
2023-05-12T07:04:59.849Z,4.50
2023-05-12T07:06:03.323Z,3.00
2023-05-12T07:07:06.794Z,2.50
2023-05-12T07:08:10.373Z,3.50
2023-05-12T07:09:14.181Z,3.50
2023-05-12T07:10:17.769Z,3.00
2023-05-12T07:11:21.472Z,2.50
2023-05-12T07:12:25.378Z,2.75
2023-05-12T07:13:29.060Z,3.00
2023-05-12T07:14:32.450Z,3.75
2023-05-12T07:15:36.229Z,3.00
2023-05-12T07:16:40.025Z,2.50
2023-05-12T07:17:43.643Z,3.00
2023-05-12T07:18:47.035Z,2.75
2023-05-12T07:19:50.701Z,2.75
2023-05-12T07:20:54.422Z,3.50
2023-05-12T07:21:57.983Z,4.00
2023-05-12T07:23:01.686Z,4.00
2023-05-12T07:24:05.181Z,4.00
2023-05-12T07:25:08.833Z,3.50
2023-05-12T07:26:12.360Z,3.00
2023-05-12T07:27:15.968Z,3.50
2023-05-12T07:28:19.328Z,4.00
2023-05-12T07:29:23.651Z,4.25
2023-05-12T07:30:27.136Z,4.50
2023-05-12T07:31:31.188Z,4.50
2023-05-12T07:32:34.480Z,4.00
2023-05-12T07:33:37.998Z,3.50
2023-05-12T07:34:41.590Z,3.75
2023-05-12T07:35:45.806Z,5.00
2023-05-12T07:36:49.108Z,4.00
2023-05-12T07:37:53.000Z,3.00
2023-05-12T07:38:56.145Z,5.00
2023-05-12T07:39:59.673Z,5.50
2023-05-12T07:41:04.534Z,3.00
2023-05-12T07:42:07.668Z,2.50
2023-05-12T07:43:10.944Z,3.00
2023-05-12T07:44:14.438Z,3.00
2023-05-12T07:45:18.196Z,3.00
2023-05-12T07:46:21.494Z,3.00
2023-05-12T07:47:24.805Z,2.50
2023-05-12T07:48:28.619Z,2.50
2023-05-12T07:49:32.598Z,3.00
2023-05-12T07:50:35.959Z,3.00
2023-05-12T07:51:39.726Z,3.50
2023-05-12T07:52:43.369Z,4.00
2023-05-12T07:53:47.224Z,3.50
2023-05-12T07:54:50.651Z,3.50
2023-05-12T07:55:53.941Z,3.50
2023-05-12T07:56:57.423Z,4.00
2023-05-12T07:58:00.915Z,3.00
2023-05-12T07:59:04.132Z,3.50
2023-05-12T08:00:07.387Z,3.00
2023-05-12T08:01:11.176Z,4.00
2023-05-12T08:02:14.654Z,3.50
2023-05-12T08:03:18.422Z,3.25
2023-05-12T08:04:21.788Z,4.00
2023-05-12T08:05:25.769Z,4.00
2023-05-12T08:06:29.442Z,2.50
2023-05-12T08:07:32.898Z,3.00
2023-05-12T08:08:36.552Z,4.00
2023-05-12T08:09:39.715Z,3.50
2023-05-12T08:10:43.299Z,3.00
2023-05-12T08:11:48.121Z,3.00
2023-05-12T08:12:50.997Z,4.00
2023-05-12T08:13:54.477Z,4.50
2023-05-12T08:14:58.090Z,4.00
2023-05-12T08:16:01.472Z,4.25
2023-05-12T08:17:06.322Z,3.50
2023-05-12T08:18:09.878Z,3.25
2023-05-12T08:19:13.222Z,3.50
2023-05-12T08:20:16.650Z,4.50
2023-05-12T08:21:19.618Z,5.50
2023-05-12T08:22:23.323Z,4.75
2023-05-12T08:23:26.923Z,5.00
2023-05-12T08:24:30.387Z,5.00
2023-05-12T08:25:33.573Z,4.25
2023-05-12T08:26:37.082Z,4.00
2023-05-12T08:27:40.207Z,4.50
2023-05-12T08:28:43.652Z,5.25
2023-05-12T08:29:47.329Z,6.00
2023-05-12T08:30:50.771Z,5.25
2023-05-12T08:31:54.018Z,4.50
2023-05-12T08:32:57.469Z,4.50
2023-05-12T08:34:09.706Z,4.50
2023-05-12T08:35:04.981Z,4.75
2023-05-12T08:36:08.058Z,4.50
2023-05-12T08:37:11.768Z,4.50
2023-05-12T08:38:14.833Z,4.50
2023-05-12T08:39:18.012Z,4.50
2023-05-12T08:40:21.807Z,5.00
2023-05-12T08:41:25.659Z,5.50
2023-05-12T08:42:28.787Z,5.00
2023-05-12T08:43:32.182Z,5.00
2023-05-12T08:44:35.775Z,5.00
2023-05-12T08:45:39.049Z,5.00
2023-05-12T08:46:42.286Z,5.50
2023-05-12T08:47:45.557Z,4.80
2023-05-12T08:48:49.320Z,5.00
2023-05-12T08:49:52.635Z,6.00
2023-05-12T08:50:56.306Z,5.25
2023-05-12T08:52:00.292Z,5.25
2023-05-12T08:53:03.480Z,5.25
2023-05-12T08:54:06.668Z,5.00
2023-05-12T08:55:10.150Z,5.25
2023-05-12T08:57:18.248Z,7.50
2023-05-12T08:58:27.787Z,6.00
2023-05-12T08:59:25.958Z,5.00
2023-05-12T09:00:29.581Z,5.50
2023-05-12T09:01:34.743Z,5.50
2023-05-12T09:02:51.434Z,5.50
2023-05-12T09:03:42.290Z,5.50
2023-05-12T09:04:45.567Z,5.75
2023-05-12T09:05:49.239Z,4.50
2023-05-12T09:06:54.968Z,5.00
2023-05-12T09:07:58.759Z,5.50
2023-05-12T09:09:01.869Z,5.50
2023-05-12T09:10:04.935Z,5.50
2023-05-12T09:11:11.088Z,4.50
2023-05-12T09:12:16.791Z,5.00
2023-05-12T09:13:19.897Z,5.50
2023-05-12T09:14:23.207Z,5.25
2023-05-12T09:15:27.188Z,5.50
2023-05-12T09:16:31.019Z,5.50
2023-05-12T09:17:34.712Z,5.00
2023-05-12T09:18:38.190Z,5.50
2023-05-12T09:19:41.966Z,6.00
2023-05-12T09:20:45.355Z,5.00
2023-05-12T09:21:48.968Z,5.25
2023-05-12T09:22:52.637Z,5.25
2023-05-12T09:23:55.928Z,6.00
2023-05-12T09:24:59.310Z,6.00
2023-05-12T09:26:02.710Z,6.00
2023-05-12T09:27:06.718Z,6.25
2023-05-12T09:28:10.220Z,6.50
2023-05-12T09:29:20.738Z,7.00
2023-05-12T09:30:18.406Z,6.50
2023-05-12T09:31:22.743Z,6.50
2023-05-12T09:32:26.418Z,5.50
2023-05-12T09:33:29.970Z,4.50
2023-05-12T09:34:33.577Z,4.50
2023-05-12T09:35:37.388Z,6.50
2023-05-12T09:36:40.898Z,6.50
2023-05-12T09:37:44.389Z,5.75
2023-05-12T09:38:49.204Z,4.25
2023-05-12T09:39:51.874Z,4.50
2023-05-12T09:40:55.326Z,5.00
2023-05-12T09:41:59.131Z,5.00
2023-05-12T09:43:02.841Z,5.00
2023-05-12T09:44:06.946Z,5.50
2023-05-12T09:45:10.300Z,5.50
2023-05-12T09:46:13.831Z,6.00
2023-05-12T09:47:17.490Z,5.25
2023-05-12T09:48:20.671Z,5.00
2023-05-12T09:49:23.953Z,6.20
2023-05-12T09:50:28.954Z,5.50
2023-05-12T09:51:31.977Z,4.50
2023-05-12T09:52:35.556Z,5.00
2023-05-12T09:53:39.988Z,5.00
2023-05-12T09:54:43.270Z,5.00
2023-05-12T09:55:47.085Z,5.00
2023-05-12T09:56:50.553Z,5.00
2023-05-12T09:57:53.950Z,5.50
2023-05-12T09:58:57.119Z,5.25
2023-05-12T10:00:00.917Z,5.50
2023-05-12T10:01:21.028Z,5.50
2023-05-12T10:02:08.635Z,5.00
2023-05-12T10:03:12.237Z,5.50
2023-05-12T10:04:15.858Z,6.00
2023-05-12T10:05:19.513Z,5.50
2023-05-12T10:06:23.280Z,4.50
2023-05-12T10:07:26.679Z,4.50
2023-05-12T10:08:30.348Z,4.75
2023-05-12T10:09:34.244Z,5.00
2023-05-12T10:10:37.725Z,5.00
2023-05-12T10:11:41.628Z,4.75
2023-05-12T10:12:44.913Z,5.50
2023-05-12T10:13:48.142Z,5.50
2023-05-12T10:14:51.533Z,5.50
2023-05-12T10:15:54.908Z,5.00
2023-05-12T10:16:58.181Z,4.50
2023-05-12T10:18:01.436Z,5.00
2023-05-12T10:19:05.050Z,5.50
2023-05-12T10:20:08.548Z,6.00
2023-05-12T10:21:12.529Z,5.75
2023-05-12T10:22:16.029Z,5.50
2023-05-12T10:23:19.198Z,5.50
2023-05-12T10:24:22.580Z,5.00
2023-05-12T10:25:25.986Z,4.75
2023-05-12T10:26:29.253Z,4.75
2023-05-12T10:27:32.848Z,4.00
2023-05-12T10:28:36.125Z,5.00
2023-05-12T10:29:40.643Z,6.00
2023-05-12T10:30:43.715Z,5.50
2023-05-12T10:31:47.338Z,6.00
2023-05-12T10:32:50.880Z,6.00
2023-05-12T10:33:54.491Z,6.00
2023-05-12T10:34:57.884Z,5.00
2023-05-12T10:36:01.270Z,5.50
2023-05-12T10:37:04.599Z,6.00
2023-05-12T10:38:08.181Z,4.50
2023-05-12T10:39:11.635Z,5.00
2023-05-12T10:40:16.308Z,6.25
2023-05-12T10:41:20.044Z,5.00
2023-05-12T10:42:23.567Z,4.75
2023-05-12T10:43:26.919Z,5.75
2023-05-12T10:44:30.391Z,6.50
2023-05-12T10:45:33.897Z,5.50
2023-05-12T10:46:37.611Z,6.00
2023-05-12T10:47:40.895Z,6.25
2023-05-12T10:48:44.373Z,5.00
2023-05-12T10:49:47.654Z,6.75
2023-05-12T10:50:50.929Z,5.50
2023-05-12T10:51:54.618Z,5.50
2023-05-12T10:52:58.659Z,5.50
2023-05-12T10:54:02.239Z,5.50
2023-05-12T10:55:06.179Z,5.50
2023-05-12T10:56:10.609Z,5.50
2023-05-12T10:57:17.979Z,5.50
2023-05-12T10:58:19.753Z,6.00
2023-05-12T10:59:24.222Z,6.00
2023-05-12T11:00:28.049Z,6.50
2023-05-12T11:01:33.373Z,7.00
2023-05-12T11:02:38.561Z,7.50
2023-05-12T11:03:42.427Z,7.00
2023-05-12T11:04:45.693Z,6.00
2023-05-12T11:05:50.716Z,6.50
2023-05-12T11:06:54.442Z,6.00
2023-05-12T11:07:58.973Z,6.50
2023-05-12T11:09:03.041Z,5.00
2023-05-12T11:10:07.878Z,6.00
2023-05-12T11:11:11.163Z,7.00
2023-05-12T11:12:14.544Z,7.00
2023-05-12T11:13:17.934Z,7.00
2023-05-12T11:14:21.514Z,6.25
2023-05-12T11:15:24.408Z,8.00
2023-05-12T11:16:27.906Z,7.00
2023-05-12T11:17:31.415Z,6.00
2023-05-12T11:18:35.010Z,6.00
2023-05-12T11:19:38.225Z,6.00
2023-05-12T11:20:41.529Z,6.00
2023-05-12T11:21:44.926Z,6.00
2023-05-12T11:22:48.411Z,5.00
2023-05-12T11:23:52.100Z,5.50
2023-05-12T11:24:55.456Z,6.25
2023-05-12T11:25:58.737Z,7.00
2023-05-12T11:27:02.289Z,6.00
2023-05-12T11:28:05.789Z,6.50
2023-05-12T11:29:09.147Z,7.00
2023-05-12T11:30:12.542Z,5.75
2023-05-12T11:33:53.725Z,5.50
2023-05-12T11:34:53.245Z,4.00
2023-05-12T11:35:56.689Z,5.00
2023-05-12T11:37:00.207Z,4.50
2023-05-12T11:38:03.880Z,5.50
2023-05-12T11:39:06.958Z,5.75
2023-05-12T11:40:10.255Z,6.25
2023-05-12T11:41:13.629Z,6.00
2023-05-12T11:42:19.762Z,6.25
2023-05-12T11:43:21.428Z,5.50
2023-05-12T11:44:25.428Z,5.00
2023-05-12T11:45:29.020Z,6.00
2023-05-12T11:46:32.128Z,6.00
2023-05-12T11:47:35.518Z,4.50
2023-05-12T11:48:39.010Z,6.50
2023-05-12T11:49:41.948Z,9.25
2023-05-12T11:50:45.452Z,10.50
2023-05-12T11:51:51.669Z,8.00
2023-05-12T11:52:55.077Z,7.00
2023-05-12T11:53:58.375Z,8.00
2023-05-12T11:55:01.752Z,9.00
2023-05-12T11:56:05.156Z,8.50
2023-05-12T11:57:08.734Z,8.50
2023-05-12T11:58:12.690Z,11.00
2023-05-12T11:59:16.110Z,9.75
2023-05-12T12:00:19.531Z,7.75
2023-05-12T12:01:26.051Z,8.50
2023-05-12T12:02:27.278Z,9.00
2023-05-12T12:03:31.051Z,9.50
2023-05-12T12:04:35.678Z,9.00
2023-05-12T12:05:39.612Z,7.50
2023-05-12T12:06:43.207Z,9.00
2023-05-12T12:07:46.694Z,9.00
2023-05-12T12:08:49.981Z,8.00
2023-05-12T12:09:54.182Z,7.25
2023-05-12T12:12:14.534Z,8.00
2023-05-12T12:13:18.061Z,9.50
2023-05-12T12:14:21.675Z,9.50
2023-05-12T12:15:25.049Z,9.50
2023-05-12T12:16:28.453Z,9.50
2023-05-12T12:17:31.872Z,8.50
2023-05-12T12:18:35.365Z,9.25
2023-05-12T12:19:38.907Z,8.50
2023-05-12T12:20:42.283Z,8.50
2023-05-12T12:21:45.989Z,8.75
2023-05-12T12:22:49.279Z,9.00
2023-05-12T12:23:52.448Z,11.40
2023-05-12T12:24:55.831Z,10.00
2023-05-12T12:25:59.113Z,8.50
2023-05-12T12:27:02.723Z,9.50
2023-05-12T12:28:06.411Z,9.50
2023-05-12T12:29:09.908Z,9.75
2023-05-12T12:30:12.934Z,10.50
2023-05-12T12:31:15.989Z,11.25
2023-05-12T12:32:20.156Z,11.25
2023-05-12T12:33:23.365Z,12.00
2023-05-12T12:34:26.740Z,10.75
2023-05-12T12:35:30.820Z,9.75
2023-05-12T12:36:34.112Z,10.75
2023-05-12T12:37:37.295Z,11.00
2023-05-12T12:38:40.582Z,10.75
2023-05-12T12:39:43.897Z,11.25
2023-05-12T12:40:47.158Z,9.50
2023-05-12T12:41:53.072Z,10.00
2023-05-12T12:42:56.383Z,8.75
2023-05-12T12:43:59.699Z,10.25
2023-05-12T12:45:03.293Z,11.00
2023-05-12T12:46:06.442Z,10.75
2023-05-12T12:47:09.723Z,10.00
2023-05-12T12:48:13.561Z,10.50
2023-05-12T12:49:17.011Z,12.00
2023-05-12T12:50:20.392Z,12.00
2023-05-12T12:51:24.318Z,11.50
2023-05-12T12:52:28.079Z,11.50
2023-05-12T12:53:31.095Z,11.50
2023-05-12T12:54:34.345Z,10.00
2023-05-12T12:55:37.525Z,10.50
2023-05-12T12:56:40.728Z,12.00
2023-05-12T12:57:44.306Z,12.00
2023-05-12T12:58:47.525Z,12.25
2023-05-12T12:59:50.776Z,12.50
2023-05-12T13:00:54.180Z,12.75
2023-05-12T13:01:57.674Z,13.50
2023-05-12T13:03:01.172Z,12.25
2023-05-12T13:04:04.724Z,12.50
2023-05-12T13:05:08.109Z,13.60
2023-05-12T13:06:11.399Z,15.00
2023-05-12T13:07:14.815Z,13.50
2023-05-12T13:08:18.585Z,13.50
2023-05-12T13:09:22.188Z,14.75
2023-05-12T13:10:25.559Z,14.00
2023-05-12T13:11:28.698Z,13.00
2023-05-12T13:12:31.712Z,14.00
2023-05-12T13:13:35.123Z,14.00
2023-05-12T13:14:38.365Z,14.00
2023-05-12T13:15:41.566Z,14.00
2023-05-12T13:16:44.894Z,12.40
2023-05-12T13:17:48.165Z,12.25
2023-05-12T13:18:51.255Z,13.00
2023-05-12T13:19:54.395Z,13.50
2023-05-12T13:20:57.477Z,12.00
2023-05-12T13:22:00.659Z,12.00
2023-05-12T13:23:03.945Z,12.50
2023-05-12T13:24:07.135Z,13.00
2023-05-12T13:25:10.641Z,12.00
2023-05-12T13:26:14.203Z,10.50
2023-05-12T13:27:17.399Z,12.00
2023-05-12T13:28:20.459Z,14.00
2023-05-12T13:29:23.772Z,18.50
2023-05-12T13:30:27.237Z,17.00
2023-05-12T13:31:30.386Z,15.00
2023-05-12T13:32:33.641Z,13.25
2023-05-12T13:33:37.912Z,14.00
2023-05-12T13:34:41.103Z,15.00
2023-05-12T13:35:44.389Z,13.00
2023-05-12T13:36:47.873Z,13.75
2023-05-12T13:37:51.040Z,17.00
2023-05-12T13:38:54.446Z,16.25
2023-05-12T13:39:57.619Z,16.00
2023-05-12T13:41:01.197Z,15.00
2023-05-12T13:42:04.643Z,15.25
2023-05-12T13:43:07.977Z,12.75
2023-05-12T13:44:11.168Z,11.50
2023-05-12T13:45:14.456Z,13.00
2023-05-12T13:46:20.935Z,15.00
2023-05-12T13:47:24.286Z,13.25
2023-05-12T13:48:27.810Z,13.00
2023-05-12T13:49:30.956Z,12.75
2023-05-12T13:50:34.248Z,12.00
2023-05-12T13:51:37.866Z,11.75
2023-05-12T13:52:41.226Z,11.50
2023-05-12T13:53:44.304Z,12.50
2023-05-12T13:54:48.008Z,14.00
2023-05-12T13:55:51.075Z,12.50
2023-05-12T13:56:54.885Z,10.75
2023-05-12T13:57:58.058Z,10.75
2023-05-12T13:59:04.417Z,11.50
2023-05-12T14:00:13.362Z,11.25
2023-05-12T14:01:16.760Z,10.25
2023-05-12T14:02:20.532Z,11.00
2023-05-12T14:03:23.992Z,11.00
2023-05-12T14:04:27.215Z,11.00
2023-05-12T14:05:30.801Z,11.00
2023-05-12T14:06:34.280Z,9.50
2023-05-12T14:07:37.347Z,10.75
2023-05-12T14:08:40.628Z,12.75
2023-05-12T14:09:44.123Z,10.50